sensor_id;sensor_type;location;lat;lon;timestamp;P1;durP1;ratioP1;P2;durP2;ratioP2
28455;SDS011;15682;56.742;38.866;2023-08-20T00:01:24;12.3;;;5.5;;
28455;SDS011;15682;56.742;38.866;2023-08-20T00:03:24;17.5;;;6.1;;
28455;SDS011;15682;56.742;38.866;2023-08-20T00:05:25;18.9;;;5.5;;
28455;SDS011;15682;56.742;38.866;2023-08-20T00:07:25;13.9;;;5.9;;
28455;SDS011;15682;56.742;38.866;2023-08-20T00:09:25;18.1;;;5.9;;
28455;SDS011;15682;56.742;38.866;2023-08-20T00:11:25;20.0;;;6.3;;
28455;SDS011;15682;56.742;38.866;2023-08-20T00:13:26;17.4;;;5.6;;
28455;SDS011;15682;56.742;38.866;2023-08-20T00:15:26;19.1;;;6.0;;
28455;SDS011;15682;56.742;38.866;2023-08-20T00:17:27;13.2;;;5.7;;
28455;SDS011;15682;56.742;38.866;2023-08-20T00:19:27;15.2;;;5.9;;
28455;SDS011;15682;56.742;38.866;2023-08-20T00:21:27;14.1;;;5.8;;
28455;SDS011;15682;56.742;38.866;2023-08-20T00:23:28;17.4;;;5.9;;
28455;SDS011;15682;56.742;38.866;2023-08-20T00:25:28;16.6;;;6.1;;
28455;SDS011;15682;56.742;38.866;2023-08-20T00:27:28;12.4;;;5.7;;
28455;SDS011;15682;56.742;38.866;2023-08-20T00:29:28;15.0;;;6.2;;
28455;SDS011;15682;56.742;38.866;2023-08-20T00:31:29;13.6;;;5.7;;
28455;SDS011;15682;56.742;38.866;2023-08-20T00:33:29;16.4;;;5.6;;
28455;SDS011;15682;56.742;38.866;2023-08-20T00:35:29;18.2;;;5.6;;
28455;SDS011;15682;56.742;38.866;2023-08-20T00:37:30;12.9;;;5.6;;
28455;SDS011;15682;56.742;38.866;2023-08-20T00:39:30;12.6;;;5.0;;
28455;SDS011;15682;56.742;38.866;2023-08-20T00:41:30;9.4;;;5.5;;
28455;SDS011;15682;56.742;38.866;2023-08-20T00:43:31;8.2;;;4.8;;
28455;SDS011;15682;56.742;38.866;2023-08-20T00:45:31;12.5;;;5.1;;
28455;SDS011;15682;56.742;38.866;2023-08-20T00:47:31;10.6;;;4.7;;
28455;SDS011;15682;56.742;38.866;2023-08-20T00:49:32;11.9;;;4.7;;
28455;SDS011;15682;56.742;38.866;2023-08-20T00:51:32;10.7;;;4.8;;
28455;SDS011;15682;56.742;38.866;2023-08-20T00:53:32;11.2;;;5.0;;
28455;SDS011;15682;56.742;38.866;2023-08-20T00:55:33;10.1;;;5.2;;
28455;SDS011;15682;56.742;38.866;2023-08-20T00:57:33;10.6;;;4.8;;
28455;SDS011;15682;56.742;38.866;2023-08-20T00:59:33;10.5;;;4.9;;
28455;SDS011;15682;56.742;38.866;2023-08-20T01:01:34;12.3;;;5.3;;
28455;SDS011;15682;56.742;38.866;2023-08-20T01:03:34;13.8;;;5.7;;
28455;SDS011;15682;56.742;38.866;2023-08-20T01:05:36;11.4;;;4.9;;
28455;SDS011;15682;56.742;38.866;2023-08-20T01:07:38;9.4;;;5.2;;
28455;SDS011;15682;56.742;38.866;2023-08-20T01:09:37;14.8;;;5.3;;
28455;SDS011;15682;56.742;38.866;2023-08-20T01:11:37;11.1;;;5.4;;
28455;SDS011;15682;56.742;38.866;2023-08-20T01:13:36;11.9;;;5.4;;
28455;SDS011;15682;56.742;38.866;2023-08-20T01:15:36;14.4;;;5.5;;
28455;SDS011;15682;56.742;38.866;2023-08-20T01:17:37;11.8;;;5.1;;
28455;SDS011;15682;56.742;38.866;2023-08-20T01:19:37;13.1;;;5.3;;
28455;SDS011;15682;56.742;38.866;2023-08-20T01:21:38;16.0;;;5.5;;
28455;SDS011;15682;56.742;38.866;2023-08-20T01:23:42;31.3;;;7.0;;
28455;SDS011;15682;56.742;38.866;2023-08-20T01:25:45;14.4;;;5.8;;
28455;SDS011;15682;56.742;38.866;2023-08-20T01:27:42;21.3;;;6.9;;
28455;SDS011;15682;56.742;38.866;2023-08-20T01:29:39;16.3;;;6.7;;
28455;SDS011;15682;56.742;38.866;2023-08-20T01:31:39;19.4;;;8.0;;
28455;SDS011;15682;56.742;38.866;2023-08-20T01:33:40;21.8;;;8.0;;
28455;SDS011;15682;56.742;38.866;2023-08-20T01:35:40;22.0;;;8.2;;
28455;SDS011;15682;56.742;38.866;2023-08-20T01:37:40;18.3;;;8.4;;
28455;SDS011;15682;56.742;38.866;2023-08-20T01:39:40;18.4;;;8.3;;
28455;SDS011;15682;56.742;38.866;2023-08-20T01:41:41;17.3;;;8.1;;
28455;SDS011;15682;56.742;38.866;2023-08-20T01:43:41;16.5;;;8.4;;
28455;SDS011;15682;56.742;38.866;2023-08-20T01:45:42;14.9;;;8.7;;
28455;SDS011;15682;56.742;38.866;2023-08-20T01:47:42;21.6;;;9.2;;
28455;SDS011;15682;56.742;38.866;2023-08-20T01:49:42;20.5;;;8.8;;
28455;SDS011;15682;56.742;38.866;2023-08-20T01:51:42;15.5;;;8.5;;
28455;SDS011;15682;56.742;38.866;2023-08-20T01:53:43;15.3;;;8.3;;
28455;SDS011;15682;56.742;38.866;2023-08-20T01:55:43;15.3;;;8.4;;
28455;SDS011;15682;56.742;38.866;2023-08-20T01:57:43;13.7;;;8.4;;
28455;SDS011;15682;56.742;38.866;2023-08-20T01:59:44;16.4;;;8.6;;
28455;SDS011;15682;56.742;38.866;2023-08-20T02:01:44;12.7;;;8.1;;
28455;SDS011;15682;56.742;38.866;2023-08-20T02:03:44;13.9;;;8.0;;
28455;SDS011;15682;56.742;38.866;2023-08-20T02:05:45;18.2;;;8.0;;
28455;SDS011;15682;56.742;38.866;2023-08-20T02:07:45;12.5;;;8.1;;
28455;SDS011;15682;56.742;38.866;2023-08-20T02:09:45;17.5;;;8.7;;
28455;SDS011;15682;56.742;38.866;2023-08-20T02:11:46;17.1;;;8.5;;
28455;SDS011;15682;56.742;38.866;2023-08-20T02:13:46;13.2;;;7.8;;
28455;SDS011;15682;56.742;38.866;2023-08-20T02:15:46;16.1;;;8.4;;
28455;SDS011;15682;56.742;38.866;2023-08-20T02:17:47;15.7;;;9.3;;
28455;SDS011;15682;56.742;38.866;2023-08-20T02:19:47;12.8;;;7.8;;
28455;SDS011;15682;56.742;38.866;2023-08-20T02:21:47;13.4;;;7.8;;
28455;SDS011;15682;56.742;38.866;2023-08-20T02:23:48;14.2;;;8.3;;
28455;SDS011;15682;56.742;38.866;2023-08-20T02:25:48;14.3;;;8.7;;
28455;SDS011;15682;56.742;38.866;2023-08-20T02:27:48;14.7;;;8.9;;
28455;SDS011;15682;56.742;38.866;2023-08-20T02:29:48;18.2;;;9.3;;
28455;SDS011;15682;56.742;38.866;2023-08-20T02:31:49;16.3;;;9.0;;
28455;SDS011;15682;56.742;38.866;2023-08-20T02:33:49;14.8;;;7.9;;
28455;SDS011;15682;56.742;38.866;2023-08-20T02:35:49;34.2;;;10.0;;
28455;SDS011;15682;56.742;38.866;2023-08-20T02:37:50;11.0;;;7.9;;
28455;SDS011;15682;56.742;38.866;2023-08-20T02:39:50;14.2;;;8.3;;
28455;SDS011;15682;56.742;38.866;2023-08-20T02:41:50;17.6;;;8.0;;
28455;SDS011;15682;56.742;38.866;2023-08-20T02:43:51;15.1;;;8.8;;
28455;SDS011;15682;56.742;38.866;2023-08-20T02:45:51;15.5;;;8.4;;
28455;SDS011;15682;56.742;38.866;2023-08-20T02:47:51;12.0;;;8.2;;
28455;SDS011;15682;56.742;38.866;2023-08-20T02:49:52;17.8;;;8.2;;
28455;SDS011;15682;56.742;38.866;2023-08-20T02:51:52;19.0;;;7.6;;
28455;SDS011;15682;56.742;38.866;2023-08-20T02:53:52;12.7;;;7.4;;
28455;SDS011;15682;56.742;38.866;2023-08-20T02:55:52;14.1;;;7.8;;
28455;SDS011;15682;56.742;38.866;2023-08-20T02:57:53;11.0;;;7.4;;
28455;SDS011;15682;56.742;38.866;2023-08-20T02:59:53;12.2;;;7.1;;
28455;SDS011;15682;56.742;38.866;2023-08-20T03:01:54;11.4;;;7.1;;
28455;SDS011;15682;56.742;38.866;2023-08-20T03:03:54;13.0;;;7.5;;
28455;SDS011;15682;56.742;38.866;2023-08-20T03:05:54;15.4;;;7.7;;
28455;SDS011;15682;56.742;38.866;2023-08-20T03:07:54;12.6;;;7.0;;
28455;SDS011;15682;56.742;38.866;2023-08-20T03:09:55;12.1;;;6.8;;
28455;SDS011;15682;56.742;38.866;2023-08-20T03:11:55;8.2;;;6.2;;
28455;SDS011;15682;56.742;38.866;2023-08-20T03:13:55;12.0;;;7.2;;
28455;SDS011;15682;56.742;38.866;2023-08-20T03:15:56;13.5;;;6.9;;
28455;SDS011;15682;56.742;38.866;2023-08-20T03:17:56;13.3;;;6.7;;
28455;SDS011;15682;56.742;38.866;2023-08-20T03:19:57;15.5;;;7.0;;
28455;SDS011;15682;56.742;38.866;2023-08-20T03:21:56;13.9;;;7.3;;
28455;SDS011;15682;56.742;38.866;2023-08-20T03:23:57;13.5;;;7.6;;
28455;SDS011;15682;56.742;38.866;2023-08-20T03:25:57;14.8;;;7.2;;
28455;SDS011;15682;56.742;38.866;2023-08-20T03:27:57;13.0;;;8.1;;
28455;SDS011;15682;56.742;38.866;2023-08-20T03:29:58;16.5;;;7.3;;
28455;SDS011;15682;56.742;38.866;2023-08-20T03:31:59;12.5;;;7.6;;
28455;SDS011;15682;56.742;38.866;2023-08-20T03:33:58;14.8;;;6.4;;
28455;SDS011;15682;56.742;38.866;2023-08-20T03:35:59;13.0;;;7.3;;
28455;SDS011;15682;56.742;38.866;2023-08-20T03:37:59;16.7;;;7.4;;
28455;SDS011;15682;56.742;38.866;2023-08-20T03:39:59;14.3;;;7.7;;
28455;SDS011;15682;56.742;38.866;2023-08-20T03:42:00;13.3;;;7.4;;
28455;SDS011;15682;56.742;38.866;2023-08-20T03:44:00;13.2;;;7.3;;
28455;SDS011;15682;56.742;38.866;2023-08-20T03:46:01;12.6;;;7.7;;
28455;SDS011;15682;56.742;38.866;2023-08-20T03:48:01;12.1;;;7.2;;
28455;SDS011;15682;56.742;38.866;2023-08-20T03:50:01;11.6;;;7.0;;
28455;SDS011;15682;56.742;38.866;2023-08-20T03:52:01;14.3;;;7.7;;
28455;SDS011;15682;56.742;38.866;2023-08-20T03:54:02;11.1;;;7.4;;
28455;SDS011;15682;56.742;38.866;2023-08-20T03:56:02;14.7;;;7.4;;
28455;SDS011;15682;56.742;38.866;2023-08-20T03:58:02;17.7;;;7.8;;
28455;SDS011;15682;56.742;38.866;2023-08-20T04:00:03;13.0;;;6.6;;
28455;SDS011;15682;56.742;38.866;2023-08-20T04:02:03;9.7;;;6.6;;
28455;SDS011;15682;56.742;38.866;2023-08-20T04:04:03;11.0;;;6.7;;
28455;SDS011;15682;56.742;38.866;2023-08-20T04:06:04;10.0;;;6.0;;
28455;SDS011;15682;56.742;38.866;2023-08-20T04:08:04;8.0;;;5.8;;
28455;SDS011;15682;56.742;38.866;2023-08-20T04:10:05;13.4;;;5.9;;
28455;SDS011;15682;56.742;38.866;2023-08-20T04:12:05;9.9;;;5.7;;
28455;SDS011;15682;56.742;38.866;2023-08-20T04:14:05;11.7;;;5.7;;
28455;SDS011;15682;56.742;38.866;2023-08-20T04:16:05;10.4;;;5.4;;
28455;SDS011;15682;56.742;38.866;2023-08-20T04:18:06;10.4;;;5.7;;
28455;SDS011;15682;56.742;38.866;2023-08-20T04:20:07;9.6;;;5.1;;
28455;SDS011;15682;56.742;38.866;2023-08-20T04:22:07;11.0;;;5.6;;
28455;SDS011;15682;56.742;38.866;2023-08-20T04:24:07;10.7;;;5.5;;
28455;SDS011;15682;56.742;38.866;2023-08-20T04:26:08;8.4;;;5.1;;
28455;SDS011;15682;56.742;38.866;2023-08-20T04:28:08;13.0;;;5.4;;
28455;SDS011;15682;56.742;38.866;2023-08-20T04:30:09;13.8;;;5.4;;
28455;SDS011;15682;56.742;38.866;2023-08-20T04:32:09;10.8;;;5.5;;
28455;SDS011;15682;56.742;38.866;2023-08-20T04:34:09;10.1;;;5.2;;
28455;SDS011;15682;56.742;38.866;2023-08-20T04:36:10;9.7;;;5.1;;
28455;SDS011;15682;56.742;38.866;2023-08-20T04:38:10;8.3;;;4.4;;
28455;SDS011;15682;56.742;38.866;2023-08-20T04:40:11;9.4;;;5.0;;
28455;SDS011;15682;56.742;38.866;2023-08-20T04:42:11;10.7;;;4.5;;
28455;SDS011;15682;56.742;38.866;2023-08-20T04:44:12;6.9;;;4.2;;
28455;SDS011;15682;56.742;38.866;2023-08-20T04:46:12;9.5;;;4.2;;
28455;SDS011;15682;56.742;38.866;2023-08-20T04:48:13;6.9;;;4.0;;
28455;SDS011;15682;56.742;38.866;2023-08-20T04:50:13;8.9;;;4.3;;
28455;SDS011;15682;56.742;38.866;2023-08-20T04:52:14;11.6;;;4.3;;
28455;SDS011;15682;56.742;38.866;2023-08-20T04:54:15;9.2;;;4.1;;
28455;SDS011;15682;56.742;38.866;2023-08-20T04:56:15;7.4;;;4.1;;
28455;SDS011;15682;56.742;38.866;2023-08-20T04:58:16;8.7;;;4.2;;
28455;SDS011;15682;56.742;38.866;2023-08-20T05:00:17;10.2;;;4.0;;
28455;SDS011;15682;56.742;38.866;2023-08-20T05:02:17;8.6;;;4.2;;
28455;SDS011;15682;56.742;38.866;2023-08-20T05:04:18;8.0;;;4.4;;
28455;SDS011;15682;56.742;38.866;2023-08-20T05:06:18;8.2;;;4.1;;
28455;SDS011;15682;56.742;38.866;2023-08-20T05:08:19;8.3;;;4.1;;
28455;SDS011;15682;56.742;38.866;2023-08-20T05:10:20;9.1;;;4.0;;
28455;SDS011;15682;56.742;38.866;2023-08-20T05:12:20;7.5;;;3.7;;
28455;SDS011;15682;56.742;38.866;2023-08-20T05:14:21;7.9;;;4.0;;
28455;SDS011;15682;56.742;38.866;2023-08-20T05:16:22;14.8;;;9.2;;
28455;SDS011;15682;56.742;38.866;2023-08-20T05:18:23;13.3;;;4.6;;
28455;SDS011;15682;56.742;38.866;2023-08-20T05:20:23;6.2;;;3.6;;
28455;SDS011;15682;56.742;38.866;2023-08-20T05:22:24;10.8;;;4.6;;
28455;SDS011;15682;56.742;38.866;2023-08-20T05:24:25;7.3;;;3.4;;
28455;SDS011;15682;56.742;38.866;2023-08-20T05:26:25;8.5;;;3.7;;
28455;SDS011;15682;56.742;38.866;2023-08-20T05:28:26;6.7;;;3.7;;
28455;SDS011;15682;56.742;38.866;2023-08-20T05:30:27;12.6;;;9.5;;
28455;SDS011;15682;56.742;38.866;2023-08-20T05:32:28;11.3;;;5.6;;
28455;SDS011;15682;56.742;38.866;2023-08-20T05:34:29;12.9;;;9.1;;
28455;SDS011;15682;56.742;38.866;2023-08-20T05:36:29;7.4;;;4.1;;
28455;SDS011;15682;56.742;38.866;2023-08-20T05:38:30;10.0;;;4.4;;
28455;SDS011;15682;56.742;38.866;2023-08-20T05:40:31;12.1;;;8.4;;
28455;SDS011;15682;56.742;38.866;2023-08-20T05:42:32;11.1;;;8.2;;
28455;SDS011;15682;56.742;38.866;2023-08-20T05:44:33;7.6;;;4.7;;
28455;SDS011;15682;56.742;38.866;2023-08-20T05:46:33;7.4;;;4.5;;
28455;SDS011;15682;56.742;38.866;2023-08-20T05:48:34;6.1;;;3.9;;
28455;SDS011;15682;56.742;38.866;2023-08-20T05:50:35;6.3;;;4.3;;
28455;SDS011;15682;56.742;38.866;2023-08-20T05:52:36;7.8;;;4.2;;
28455;SDS011;15682;56.742;38.866;2023-08-20T05:54:37;6.7;;;4.2;;
28455;SDS011;15682;56.742;38.866;2023-08-20T05:56:38;6.5;;;4.2;;
28455;SDS011;15682;56.742;38.866;2023-08-20T05:58:38;7.7;;;4.4;;
28455;SDS011;15682;56.742;38.866;2023-08-20T06:00:39;8.4;;;4.7;;
28455;SDS011;15682;56.742;38.866;2023-08-20T06:02:40;7.9;;;4.5;;
28455;SDS011;15682;56.742;38.866;2023-08-20T06:04:41;9.4;;;4.4;;
28455;SDS011;15682;56.742;38.866;2023-08-20T06:06:42;7.4;;;4.0;;
28455;SDS011;15682;56.742;38.866;2023-08-20T06:08:43;8.5;;;4.2;;
28455;SDS011;15682;56.742;38.866;2023-08-20T06:10:44;6.3;;;4.4;;
28455;SDS011;15682;56.742;38.866;2023-08-20T06:12:44;5.8;;;3.9;;
28455;SDS011;15682;56.742;38.866;2023-08-20T06:14:45;10.2;;;4.4;;
28455;SDS011;15682;56.742;38.866;2023-08-20T06:16:46;9.9;;;4.2;;
28455;SDS011;15682;56.742;38.866;2023-08-20T06:18:47;7.9;;;4.3;;
28455;SDS011;15682;56.742;38.866;2023-08-20T06:20:48;11.3;;;4.0;;
28455;SDS011;15682;56.742;38.866;2023-08-20T06:22:49;5.9;;;3.8;;
28455;SDS011;15682;56.742;38.866;2023-08-20T06:24:49;7.8;;;3.9;;
28455;SDS011;15682;56.742;38.866;2023-08-20T06:26:51;5.7;;;3.6;;
28455;SDS011;15682;56.742;38.866;2023-08-20T06:28:51;5.1;;;3.8;;
28455;SDS011;15682;56.742;38.866;2023-08-20T06:30:52;9.3;;;3.9;;
28455;SDS011;15682;56.742;38.866;2023-08-20T06:32:53;5.4;;;3.7;;
28455;SDS011;15682;56.742;38.866;2023-08-20T06:34:54;8.0;;;3.9;;
28455;SDS011;15682;56.742;38.866;2023-08-20T06:36:54;8.7;;;4.0;;
28455;SDS011;15682;56.742;38.866;2023-08-20T06:38:55;8.1;;;4.0;;
28455;SDS011;15682;56.742;38.866;2023-08-20T06:40:56;6.9;;;3.9;;
28455;SDS011;15682;56.742;38.866;2023-08-20T06:42:57;7.2;;;3.8;;
28455;SDS011;15682;56.742;38.866;2023-08-20T06:44:58;8.5;;;3.4;;
28455;SDS011;15682;56.742;38.866;2023-08-20T06:46:59;5.7;;;3.5;;
28455;SDS011;15682;56.742;38.866;2023-08-20T06:48:59;5.9;;;3.7;;
28455;SDS011;15682;56.742;38.866;2023-08-20T06:51:07;6.6;;;3.4;;
28455;SDS011;15682;56.742;38.866;2023-08-20T06:53:01;6.4;;;3.6;;
28455;SDS011;15682;56.742;38.866;2023-08-20T06:55:02;6.6;;;4.0;;
28455;SDS011;15682;56.742;38.866;2023-08-20T06:57:03;7.2;;;4.1;;
28455;SDS011;15682;56.742;38.866;2023-08-20T06:59:04;6.7;;;3.5;;
28455;SDS011;15682;56.742;38.866;2023-08-20T07:01:05;6.0;;;3.7;;
28455;SDS011;15682;56.742;38.866;2023-08-20T07:03:06;7.2;;;3.4;;
28455;SDS011;15682;56.742;38.866;2023-08-20T07:05:07;4.3;;;3.2;;
28455;SDS011;15682;56.742;38.866;2023-08-20T07:07:07;4.8;;;3.1;;
28455;SDS011;15682;56.742;38.866;2023-08-20T07:09:08;4.2;;;3.1;;
28455;SDS011;15682;56.742;38.866;2023-08-20T07:11:09;5.7;;;3.1;;
28455;SDS011;15682;56.742;38.866;2023-08-20T07:13:10;6.7;;;3.3;;
28455;SDS011;15682;56.742;38.866;2023-08-20T07:15:10;6.9;;;3.6;;
28455;SDS011;15682;56.742;38.866;2023-08-20T07:17:11;6.6;;;3.2;;
28455;SDS011;15682;56.742;38.866;2023-08-20T07:19:12;5.5;;;3.5;;
28455;SDS011;15682;56.742;38.866;2023-08-20T07:21:13;5.8;;;3.2;;
28455;SDS011;15682;56.742;38.866;2023-08-20T07:23:13;6.9;;;3.3;;
28455;SDS011;15682;56.742;38.866;2023-08-20T07:25:14;4.4;;;3.1;;
28455;SDS011;15682;56.742;38.866;2023-08-20T07:27:15;6.2;;;3.4;;
28455;SDS011;15682;56.742;38.866;2023-08-20T07:29:16;5.7;;;3.3;;
28455;SDS011;15682;56.742;38.866;2023-08-20T07:31:16;7.9;;;3.5;;
28455;SDS011;15682;56.742;38.866;2023-08-20T07:33:17;8.1;;;4.3;;
28455;SDS011;15682;56.742;38.866;2023-08-20T07:35:18;6.7;;;4.3;;
28455;SDS011;15682;56.742;38.866;2023-08-20T07:37:18;9.6;;;6.3;;
28455;SDS011;15682;56.742;38.866;2023-08-20T07:39:19;8.9;;;4.7;;
28455;SDS011;15682;56.742;38.866;2023-08-20T07:41:20;8.7;;;4.3;;
28455;SDS011;15682;56.742;38.866;2023-08-20T07:43:20;8.3;;;4.6;;
28455;SDS011;15682;56.742;38.866;2023-08-20T07:45:21;8.4;;;4.1;;
28455;SDS011;15682;56.742;38.866;2023-08-20T07:47:21;6.4;;;4.1;;
28455;SDS011;15682;56.742;38.866;2023-08-20T07:49:22;6.0;;;4.1;;
28455;SDS011;15682;56.742;38.866;2023-08-20T07:51:22;8.2;;;4.5;;
28455;SDS011;15682;56.742;38.866;2023-08-20T07:53:23;6.4;;;4.6;;
28455;SDS011;15682;56.742;38.866;2023-08-20T07:55:24;9.4;;;4.9;;
28455;SDS011;15682;56.742;38.866;2023-08-20T07:57:24;9.1;;;5.1;;
28455;SDS011;15682;56.742;38.866;2023-08-20T07:59:25;7.4;;;5.0;;
28455;SDS011;15682;56.742;38.866;2023-08-20T08:01:25;9.7;;;5.9;;
28455;SDS011;15682;56.742;38.866;2023-08-20T08:03:26;11.2;;;5.2;;
28455;SDS011;15682;56.742;38.866;2023-08-20T08:05:27;8.3;;;5.1;;
28455;SDS011;15682;56.742;38.866;2023-08-20T08:07:27;9.1;;;5.9;;
28455;SDS011;15682;56.742;38.866;2023-08-20T08:09:28;7.4;;;5.0;;
28455;SDS011;15682;56.742;38.866;2023-08-20T08:11:28;7.9;;;4.5;;
28455;SDS011;15682;56.742;38.866;2023-08-20T08:13:29;10.8;;;5.5;;
28455;SDS011;15682;56.742;38.866;2023-08-20T08:15:30;8.6;;;5.1;;
28455;SDS011;15682;56.742;38.866;2023-08-20T08:17:30;8.0;;;4.8;;
28455;SDS011;15682;56.742;38.866;2023-08-20T08:19:31;8.5;;;4.4;;
28455;SDS011;15682;56.742;38.866;2023-08-20T08:21:31;7.2;;;4.8;;
28455;SDS011;15682;56.742;38.866;2023-08-20T08:23:32;5.6;;;4.6;;
28455;SDS011;15682;56.742;38.866;2023-08-20T08:25:33;5.9;;;4.7;;
28455;SDS011;15682;56.742;38.866;2023-08-20T08:27:33;7.2;;;4.5;;
28455;SDS011;15682;56.742;38.866;2023-08-20T08:29:34;7.7;;;5.0;;
28455;SDS011;15682;56.742;38.866;2023-08-20T08:31:34;6.9;;;4.3;;
28455;SDS011;15682;56.742;38.866;2023-08-20T08:33:35;8.5;;;4.9;;
28455;SDS011;15682;56.742;38.866;2023-08-20T08:35:35;8.8;;;5.1;;
28455;SDS011;15682;56.742;38.866;2023-08-20T08:37:36;5.8;;;4.7;;
28455;SDS011;15682;56.742;38.866;2023-08-20T08:39:37;5.8;;;4.5;;
28455;SDS011;15682;56.742;38.866;2023-08-20T08:41:38;9.3;;;4.9;;
28455;SDS011;15682;56.742;38.866;2023-08-20T08:43:38;8.7;;;4.6;;
28455;SDS011;15682;56.742;38.866;2023-08-20T08:45:38;5.7;;;4.4;;
28455;SDS011;15682;56.742;38.866;2023-08-20T08:47:39;9.9;;;4.5;;
28455;SDS011;15682;56.742;38.866;2023-08-20T08:49:40;8.7;;;4.4;;
28455;SDS011;15682;56.742;38.866;2023-08-20T08:51:40;6.8;;;4.5;;
28455;SDS011;15682;56.742;38.866;2023-08-20T08:53:42;10.0;;;5.2;;
28455;SDS011;15682;56.742;38.866;2023-08-20T08:55:41;7.3;;;4.7;;
28455;SDS011;15682;56.742;38.866;2023-08-20T08:57:42;6.7;;;4.7;;
28455;SDS011;15682;56.742;38.866;2023-08-20T08:59:43;6.5;;;5.0;;
28455;SDS011;15682;56.742;38.866;2023-08-20T09:01:43;7.6;;;4.5;;
28455;SDS011;15682;56.742;38.866;2023-08-20T09:03:44;6.6;;;4.5;;
28455;SDS011;15682;56.742;38.866;2023-08-20T09:05:46;8.0;;;4.8;;
28455;SDS011;15682;56.742;38.866;2023-08-20T09:07:45;9.0;;;4.7;;
28455;SDS011;15682;56.742;38.866;2023-08-20T09:09:46;6.7;;;4.4;;
28455;SDS011;15682;56.742;38.866;2023-08-20T09:11:46;8.5;;;5.0;;
28455;SDS011;15682;56.742;38.866;2023-08-20T09:13:46;5.7;;;4.6;;
28455;SDS011;15682;56.742;38.866;2023-08-20T09:15:49;7.9;;;5.0;;
28455;SDS011;15682;56.742;38.866;2023-08-20T09:17:48;10.2;;;5.0;;
28455;SDS011;15682;56.742;38.866;2023-08-20T09:19:48;7.9;;;4.8;;
28455;SDS011;15682;56.742;38.866;2023-08-20T09:21:49;9.0;;;4.5;;
28455;SDS011;15682;56.742;38.866;2023-08-20T09:23:49;7.4;;;5.5;;
28455;SDS011;15682;56.742;38.866;2023-08-20T09:25:50;11.7;;;5.6;;
28455;SDS011;15682;56.742;38.866;2023-08-20T09:27:50;7.5;;;5.1;;
28455;SDS011;15682;56.742;38.866;2023-08-20T09:29:51;7.9;;;5.9;;
28455;SDS011;15682;56.742;38.866;2023-08-20T09:31:51;11.1;;;5.6;;
28455;SDS011;15682;56.742;38.866;2023-08-20T09:33:52;8.5;;;5.8;;
28455;SDS011;15682;56.742;38.866;2023-08-20T09:35:53;12.2;;;7.4;;
28455;SDS011;15682;56.742;38.866;2023-08-20T09:37:53;10.8;;;6.3;;
28455;SDS011;15682;56.742;38.866;2023-08-20T09:39:54;11.3;;;5.9;;
28455;SDS011;15682;56.742;38.866;2023-08-20T09:41:54;9.5;;;6.3;;
28455;SDS011;15682;56.742;38.866;2023-08-20T09:43:55;10.7;;;7.4;;
28455;SDS011;15682;56.742;38.866;2023-08-20T09:45:55;11.2;;;6.8;;
28455;SDS011;15682;56.742;38.866;2023-08-20T09:47:56;13.7;;;8.3;;
28455;SDS011;15682;56.742;38.866;2023-08-20T09:49:56;12.9;;;7.5;;
28455;SDS011;15682;56.742;38.866;2023-08-20T09:51:57;10.0;;;7.0;;
28455;SDS011;15682;56.742;38.866;2023-08-20T09:54:00;8.3;;;6.2;;
28455;SDS011;15682;56.742;38.866;2023-08-20T09:56:00;10.1;;;6.4;;
28455;SDS011;15682;56.742;38.866;2023-08-20T09:57:58;10.8;;;6.8;;
28455;SDS011;15682;56.742;38.866;2023-08-20T09:59:59;8.1;;;6.1;;
28455;SDS011;15682;56.742;38.866;2023-08-20T10:02:00;10.1;;;6.5;;
28455;SDS011;15682;56.742;38.866;2023-08-20T10:04:00;10.7;;;7.0;;
28455;SDS011;15682;56.742;38.866;2023-08-20T10:06:02;10.8;;;7.3;;
28455;SDS011;15682;56.742;38.866;2023-08-20T10:08:01;10.9;;;7.8;;
28455;SDS011;15682;56.742;38.866;2023-08-20T10:10:02;8.7;;;6.5;;
28455;SDS011;15682;56.742;38.866;2023-08-20T10:12:02;8.3;;;6.2;;
28455;SDS011;15682;56.742;38.866;2023-08-20T10:14:03;9.6;;;6.1;;
28455;SDS011;15682;56.742;38.866;2023-08-20T10:16:03;9.1;;;6.4;;
28455;SDS011;15682;56.742;38.866;2023-08-20T10:18:04;9.9;;;6.0;;
28455;SDS011;15682;56.742;38.866;2023-08-20T10:20:06;9.4;;;6.1;;
28455;SDS011;15682;56.742;38.866;2023-08-20T10:22:06;7.9;;;6.1;;
28455;SDS011;15682;56.742;38.866;2023-08-20T10:24:06;9.5;;;6.3;;
28455;SDS011;15682;56.742;38.866;2023-08-20T10:26:07;9.0;;;6.3;;
28455;SDS011;15682;56.742;38.866;2023-08-20T10:28:19;8.5;;;6.1;;
28455;SDS011;15682;56.742;38.866;2023-08-20T10:30:08;13.6;;;5.8;;
28455;SDS011;15682;56.742;38.866;2023-08-20T10:32:08;17.5;;;6.1;;
28455;SDS011;15682;56.742;38.866;2023-08-20T10:34:08;14.2;;;5.2;;
28455;SDS011;15682;56.742;38.866;2023-08-20T10:36:10;11.1;;;5.6;;
28455;SDS011;15682;56.742;38.866;2023-08-20T10:38:11;18.8;;;7.8;;
28455;SDS011;15682;56.742;38.866;2023-08-20T10:40:10;21.6;;;8.1;;
28455;SDS011;15682;56.742;38.866;2023-08-20T10:44:11;13.0;;;7.0;;
28455;SDS011;15682;56.742;38.866;2023-08-20T10:46:15;13.0;;;6.7;;
28455;SDS011;15682;56.742;38.866;2023-08-20T10:48:12;13.0;;;7.3;;
28455;SDS011;15682;56.742;38.866;2023-08-20T10:50:15;12.2;;;8.1;;
28455;SDS011;15682;56.742;38.866;2023-08-20T10:52:13;8.9;;;6.6;;
28455;SDS011;15682;56.742;38.866;2023-08-20T10:54:13;9.5;;;6.5;;
28455;SDS011;15682;56.742;38.866;2023-08-20T10:56:14;10.1;;;6.6;;
28455;SDS011;15682;56.742;38.866;2023-08-20T10:58:14;11.9;;;6.8;;
28455;SDS011;15682;56.742;38.866;2023-08-20T11:00:15;8.2;;;6.0;;
28455;SDS011;15682;56.742;38.866;2023-08-20T11:02:15;9.2;;;5.5;;
28455;SDS011;15682;56.742;38.866;2023-08-20T11:04:16;5.9;;;5.1;;
28455;SDS011;15682;56.742;38.866;2023-08-20T11:06:16;7.7;;;5.4;;
28455;SDS011;15682;56.742;38.866;2023-08-20T11:08:16;6.3;;;4.7;;
28455;SDS011;15682;56.742;38.866;2023-08-20T11:10:17;7.7;;;4.8;;
28455;SDS011;15682;56.742;38.866;2023-08-20T11:12:19;8.3;;;5.0;;
28455;SDS011;15682;56.742;38.866;2023-08-20T11:14:18;6.4;;;5.0;;
28455;SDS011;15682;56.742;38.866;2023-08-20T11:16:18;7.5;;;4.9;;
28455;SDS011;15682;56.742;38.866;2023-08-20T11:18:19;11.5;;;5.7;;
28455;SDS011;15682;56.742;38.866;2023-08-20T11:20:19;8.3;;;6.0;;
28455;SDS011;15682;56.742;38.866;2023-08-20T11:22:19;12.4;;;6.9;;
28455;SDS011;15682;56.742;38.866;2023-08-20T11:24:20;14.2;;;7.4;;
28455;SDS011;15682;56.742;38.866;2023-08-20T11:26:20;11.9;;;7.7;;
28455;SDS011;15682;56.742;38.866;2023-08-20T11:28:21;11.9;;;8.0;;
28455;SDS011;15682;56.742;38.866;2023-08-20T11:30:21;12.6;;;8.5;;
28455;SDS011;15682;56.742;38.866;2023-08-20T11:32:23;10.1;;;8.6;;
28455;SDS011;15682;56.742;38.866;2023-08-20T11:34:22;12.7;;;8.5;;
28455;SDS011;15682;56.742;38.866;2023-08-20T11:36:23;11.0;;;8.3;;
28455;SDS011;15682;56.742;38.866;2023-08-20T11:38:23;12.2;;;9.2;;
28455;SDS011;15682;56.742;38.866;2023-08-20T11:40:23;14.4;;;9.0;;
28455;SDS011;15682;56.742;38.866;2023-08-20T11:42:24;11.1;;;9.3;;
28455;SDS011;15682;56.742;38.866;2023-08-20T11:44:24;12.1;;;9.7;;
28455;SDS011;15682;56.742;38.866;2023-08-20T11:46:25;11.9;;;10.2;;
28455;SDS011;15682;56.742;38.866;2023-08-20T11:48:25;13.3;;;11.1;;
28455;SDS011;15682;56.742;38.866;2023-08-20T11:50:26;15.0;;;10.6;;
28455;SDS011;15682;56.742;38.866;2023-08-20T11:52:26;13.5;;;10.3;;
28455;SDS011;15682;56.742;38.866;2023-08-20T11:54:27;14.2;;;10.4;;
28455;SDS011;15682;56.742;38.866;2023-08-20T11:56:27;12.7;;;10.2;;
28455;SDS011;15682;56.742;38.866;2023-08-20T11:58:28;14.1;;;9.6;;
28455;SDS011;15682;56.742;38.866;2023-08-20T12:00:30;13.3;;;8.6;;
28455;SDS011;15682;56.742;38.866;2023-08-20T12:02:28;9.1;;;6.6;;
28455;SDS011;15682;56.742;38.866;2023-08-20T12:04:29;7.5;;;6.0;;
28455;SDS011;15682;56.742;38.866;2023-08-20T12:06:30;8.1;;;5.7;;
28455;SDS011;15682;56.742;38.866;2023-08-20T12:08:30;7.0;;;4.9;;
28455;SDS011;15682;56.742;38.866;2023-08-20T12:10:31;9.7;;;5.5;;
28455;SDS011;15682;56.742;38.866;2023-08-20T12:12:31;6.3;;;5.3;;